createdAt,value
2018-12-26T00:03:16.368Z,100853.94
2018-12-26T00:05:46.104Z,100854.33
2018-12-26T00:08:15.826Z,100858.30
2018-12-26T00:10:45.918Z,100857.82
2018-12-26T00:13:15.564Z,100863.49
2018-12-26T00:15:45.273Z,100864.25
2018-12-26T00:18:15.181Z,100871.30
2018-12-26T00:20:44.780Z,100866.20
2018-12-26T00:23:14.442Z,100865.40
2018-12-26T00:25:44.689Z,100870.35
2018-12-26T00:28:14.315Z,100864.71
2018-12-26T00:30:44.274Z,100867.97
2018-12-26T00:33:14.121Z,100873.50
2018-12-26T00:35:43.833Z,100869.06
2018-12-26T00:38:13.453Z,100872.80
2018-12-26T00:40:43.215Z,100869.48
2018-12-26T00:43:13.002Z,100870.97
2018-12-26T00:46:21.968Z,100873.91
2018-12-26T00:49:10.545Z,100868.40
2018-12-26T00:54:15.488Z,100874.08
2018-12-26T00:56:45.145Z,100885.02
2018-12-26T00:59:14.768Z,100882.68
2018-12-26T01:01:44.584Z,100880.57
2018-12-26T01:04:14.247Z,100884.38
2018-12-26T01:06:43.867Z,100887.38
2018-12-26T01:09:14.060Z,100890.21
2018-12-26T01:12:22.865Z,100887.05
2018-12-26T01:14:52.715Z,100887.36
2018-12-26T01:17:22.333Z,100887.11
2018-12-26T01:20:11.162Z,100893.83
2018-12-26T01:22:40.789Z,100894.14
2018-12-26T01:25:10.763Z,100903.05
2018-12-26T01:27:40.497Z,100892.19
2018-12-26T01:30:10.114Z,100887.32
2018-12-26T01:32:39.721Z,100887.58
2018-12-26T01:35:09.732Z,100886.05
2018-12-26T01:37:39.359Z,100883.53
2018-12-26T01:40:08.985Z,100900.97
2018-12-26T01:42:38.963Z,100893.51
2018-12-26T01:45:08.698Z,100899.67
2018-12-26T01:47:38.603Z,100903.33
2018-12-26T01:50:08.500Z,100899.61
2018-12-26T01:52:38.134Z,100899.13
2018-12-26T01:55:07.776Z,100907.14
2018-12-26T01:57:37.623Z,100898.37
2018-12-26T02:00:07.568Z,100901.29
2018-12-26T02:02:37.293Z,100906.80
2018-12-26T02:05:07.371Z,100909.30
2018-12-26T02:07:36.996Z,100916.51
2018-12-26T02:10:07.016Z,100906.13
2018-12-26T02:12:37.286Z,100903.77
2018-12-26T02:15:07.007Z,100899.80
2018-12-26T02:17:36.641Z,100916.56
2018-12-26T02:20:06.879Z,100912.50
2018-12-26T02:22:36.518Z,100917.20
2018-12-26T02:25:06.230Z,100919.04
2018-12-26T02:27:36.288Z,100922.35
2018-12-26T02:30:06.735Z,100925.27
2018-12-26T02:32:36.400Z,100925.08
2018-12-26T02:35:06.342Z,100925.00
2018-12-26T02:37:35.965Z,100924.82
2018-12-26T02:40:06.277Z,100924.95
2018-12-26T02:42:36.188Z,100924.95
2018-12-26T02:45:06.418Z,100935.41
2018-12-26T02:47:36.147Z,100946.86
2018-12-26T02:50:07.122Z,100948.38
2018-12-26T02:52:36.755Z,100959.15
2018-12-26T02:55:06.757Z,100959.77
2018-12-26T02:57:36.705Z,100955.70
2018-12-26T03:00:06.885Z,100958.70
2018-12-26T03:02:36.534Z,100967.28
2018-12-26T03:05:06.637Z,100957.31
2018-12-26T03:07:36.259Z,100964.52
2018-12-26T03:10:06.125Z,100958.03
2018-12-26T03:12:36.174Z,100964.28
2018-12-26T03:15:06.274Z,100964.38
2018-12-26T03:17:35.927Z,100956.20
2018-12-26T03:20:44.926Z,100959.50
2018-12-26T03:23:14.569Z,100958.13
2018-12-26T03:26:03.180Z,100966.20
2018-12-26T03:28:32.782Z,100963.92
2018-12-26T03:31:02.443Z,100967.32
2018-12-26T03:33:51.067Z,100960.66
2018-12-26T03:36:20.792Z,100965.84
2018-12-26T03:38:50.423Z,100968.93
2018-12-26T03:41:20.293Z,100977.02
2018-12-26T03:43:50.015Z,100977.51
2018-12-26T03:46:59.203Z,100980.68
2018-12-26T03:49:40.721Z,100978.18
2018-12-26T03:52:10.743Z,100970.72
2018-12-26T03:54:40.383Z,100966.83
2018-12-26T03:57:10.013Z,100962.94
2018-12-26T03:59:39.875Z,100957.45
2018-12-26T04:02:09.522Z,100958.43
2018-12-26T04:04:39.158Z,100967.01
2018-12-26T04:07:09.305Z,100960.44
2018-12-26T04:09:57.804Z,100962.05
2018-12-26T04:12:27.671Z,100964.73
2018-12-26T04:14:57.422Z,100964.06
2018-12-26T04:17:27.132Z,100959.90
2018-12-26T04:19:57.009Z,100967.58
2018-12-26T04:28:37.193Z,100971.94
2018-12-26T04:31:06.825Z,100976.84
2018-12-26T04:33:36.456Z,100977.16
2018-12-26T04:36:06.426Z,100975.77
2018-12-26T04:38:36.185Z,100979.56
2018-12-26T04:41:05.815Z,100986.04
2018-12-26T04:43:35.764Z,100985.45
2018-12-26T04:46:05.491Z,100998.80
2018-12-26T04:51:30.793Z,101001.89
2018-12-26T04:54:00.704Z,101003.98
2018-12-26T04:56:30.435Z,101004.88
2018-12-26T04:59:00.236Z,101006.87
2018-12-26T05:01:29.863Z,101012.27
2018-12-26T05:03:59.536Z,101007.61
2018-12-26T05:06:29.669Z,101010.50
2018-12-26T05:08:59.537Z,101011.21
2018-12-26T05:11:29.163Z,101023.97
2018-12-26T05:13:58.934Z,101019.09
2018-12-26T05:16:28.546Z,101025.07
2018-12-26T05:18:58.167Z,101028.06
2018-12-26T05:21:28.025Z,100888.86
2018-12-26T05:23:57.646Z,101026.17
2018-12-26T05:26:27.546Z,101028.36
2018-12-26T05:28:57.717Z,101032.25
2018-12-26T05:31:27.359Z,101026.08
2018-12-26T05:33:56.992Z,101029.07
2018-12-26T05:36:26.896Z,101022.91
2018-12-26T05:38:56.517Z,101016.33
2018-12-26T05:41:26.572Z,101017.13
2018-12-26T05:43:56.432Z,101024.99
2018-12-26T05:49:14.900Z,101028.78
2018-12-26T05:51:44.589Z,101031.61
2018-12-26T05:54:14.208Z,101041.17
2018-12-26T05:56:44.333Z,101033.80
2018-12-26T05:59:13.975Z,101046.74
2018-12-26T06:01:43.601Z,101047.94
2018-12-26T06:04:13.345Z,101055.91
2018-12-26T06:06:43.880Z,101064.08
2018-12-26T06:09:13.518Z,101051.03
2018-12-26T06:11:43.713Z,101057.91
2018-12-26T06:14:13.333Z,101046.66
2018-12-26T06:16:42.940Z,101054.62
2018-12-26T06:19:12.848Z,101063.68
2018-12-26T06:21:42.482Z,101070.45
2018-12-26T06:24:12.134Z,101075.92
2018-12-26T06:26:42.077Z,101084.39
2018-12-26T06:29:11.737Z,101085.59
2018-12-26T06:31:41.325Z,101094.45
2018-12-26T06:34:11.056Z,101103.80
2018-12-26T06:36:40.675Z,101114.26
2018-12-26T06:39:10.293Z,101115.45
2018-12-26T06:41:40.049Z,101123.61
2018-12-26T06:44:09.660Z,101122.81
2018-12-26T06:46:39.316Z,101127.00
2018-12-26T06:49:09.258Z,101120.12
2018-12-26T06:51:57.686Z,101125.40
2018-12-26T06:54:27.734Z,101133.06
2018-12-26T06:56:57.438Z,101127.29
2018-12-26T06:59:27.069Z,101134.66
2018-12-26T07:01:56.954Z,101132.77
2018-12-26T07:04:26.565Z,101134.27
2018-12-26T07:06:56.203Z,101124.50
2018-12-26T07:09:28.054Z,101128.59
2018-12-26T07:11:57.689Z,101123.22
2018-12-26T07:14:27.604Z,101129.28
2018-12-26T07:16:57.261Z,101129.09
2018-12-26T07:19:26.935Z,101135.75
2018-12-26T07:21:56.783Z,101147.48
2018-12-26T07:24:45.308Z,101166.19
2018-12-26T07:27:22.285Z,101163.50
2018-12-26T07:29:52.019Z,101169.37
2018-12-26T07:32:21.632Z,101169.56
2018-12-26T07:34:51.543Z,101174.62
2018-12-26T07:37:21.204Z,101176.32
2018-12-26T07:39:50.816Z,101176.22
2018-12-26T07:42:20.572Z,101181.58
2018-12-26T07:44:50.307Z,101190.92
2018-12-26T07:47:19.965Z,101196.49
2018-12-26T07:49:49.721Z,101198.19
2018-12-26T07:52:19.428Z,101199.08
2018-12-26T07:54:49.034Z,101194.70
2018-12-26T07:57:19.037Z,101196.89
2018-12-26T07:59:48.779Z,101200.88
2018-12-26T08:02:18.411Z,101209.73
2018-12-26T08:04:48.262Z,101207.25
2018-12-26T08:07:18.009Z,101205.56
2018-12-26T08:09:47.604Z,101206.86
2018-12-26T08:12:17.497Z,101202.08
2018-12-26T08:14:47.181Z,101206.06
2018-12-26T08:17:16.790Z,101210.34
2018-12-26T08:19:46.509Z,101209.55
2018-12-26T08:27:28.682Z,101221.41
2018-12-26T08:29:58.287Z,101231.28
2018-12-26T08:32:27.904Z,101244.63
2018-12-26T08:34:57.649Z,101256.97
2018-12-26T08:37:27.276Z,101256.88
2018-12-26T08:39:56.901Z,101261.47
2018-12-26T08:42:45.753Z,101262.58
2018-12-26T08:45:15.378Z,101266.06
2018-12-26T08:50:33.746Z,101285.28
2018-12-26T08:53:03.378Z,101283.69
2018-12-26T08:55:33.019Z,101284.30
2018-12-26T08:58:02.768Z,101294.02
2018-12-26T09:00:32.509Z,101288.45
2018-12-26T09:03:02.151Z,101282.88
2018-12-26T09:05:31.902Z,101289.34
2018-12-26T09:08:01.525Z,101288.45
2018-12-26T09:10:31.166Z,101292.54
2018-12-26T09:13:00.918Z,101294.94
2018-12-26T09:15:30.561Z,101292.95
2018-12-26T09:18:00.186Z,101301.81
2018-12-26T09:20:30.136Z,101296.84
2018-12-26T09:22:59.812Z,101303.91
2018-12-26T09:25:30.153Z,101305.52
2018-12-26T09:28:00.078Z,101310.50
2018-12-26T09:30:29.737Z,101320.77
2018-12-26T09:32:59.352Z,101322.55
2018-12-26T09:35:29.097Z,101322.26
2018-12-26T09:37:58.734Z,101327.44
2018-12-26T09:40:28.485Z,101329.63
2018-12-26T09:42:58.551Z,101337.50
2018-12-26T09:45:28.184Z,101329.44
2018-12-26T09:47:57.897Z,101331.83
2018-12-26T09:50:27.892Z,101335.42
2018-12-26T09:52:57.513Z,101331.23
2018-12-26T09:55:27.133Z,101328.74
2018-12-26T09:57:56.997Z,101326.85
2018-12-26T10:00:26.621Z,101327.84
2018-12-26T10:02:56.460Z,101320.17
2018-12-26T10:05:26.249Z,101318.68
2018-12-26T10:07:55.864Z,101320.67
2018-12-26T10:10:25.484Z,101322.27
2018-12-26T10:12:55.359Z,101323.46
2018-12-26T10:15:24.993Z,101311.20
2018-12-26T10:17:54.606Z,101299.83
2018-12-26T10:20:24.486Z,101308.48
2018-12-26T10:22:54.127Z,101304.00
2018-12-26T10:25:23.796Z,101299.30
2018-12-26T10:27:53.727Z,101302.50
2018-12-26T10:30:23.423Z,101294.91
2018-12-26T10:32:53.057Z,101290.52
2018-12-26T10:35:22.947Z,101280.95
2018-12-26T10:41:07.326Z,101284.65
2018-12-26T10:43:36.972Z,101293.63
2018-12-26T10:49:22.121Z,101279.86
2018-12-26T10:51:51.750Z,101281.16
2018-12-26T10:54:21.378Z,101283.35
2018-12-26T10:56:51.255Z,101281.25
2018-12-26T10:59:20.877Z,101283.14
2018-12-26T11:01:50.531Z,101286.33
2018-12-26T11:04:20.354Z,101287.72
2018-12-26T11:06:50.011Z,101290.02
2018-12-26T11:09:19.630Z,101284.33
2018-12-26T11:11:49.512Z,101195.81
2018-12-26T11:14:19.138Z,101283.31
2018-12-26T11:17:28.076Z,101288.91
2018-12-26T11:20:17.123Z,101289.90
2018-12-26T11:22:47.021Z,101292.98
2018-12-26T11:25:17.406Z,101287.00
2018-12-26T11:27:47.023Z,101297.38
2018-12-26T11:30:16.821Z,101286.50
2018-12-26T11:33:07.821Z,101292.09
2018-12-26T11:35:37.580Z,101286.81
2018-12-26T11:41:16.725Z,101294.09
2018-12-26T11:43:46.340Z,101288.31
2018-12-26T11:46:16.031Z,101291.00
2018-12-26T11:48:45.959Z,101291.50
2018-12-26T11:51:15.593Z,101296.08
2018-12-26T11:53:45.480Z,101294.36
2018-12-26T11:56:15.221Z,101292.15
2018-12-26T12:01:33.465Z,101300.09
2018-12-26T12:04:03.089Z,101296.48
2018-12-26T12:06:44.465Z,101310.12
2018-12-26T12:09:14.131Z,101301.08
2018-12-26T12:11:43.770Z,101303.75
2018-12-26T12:14:13.681Z,101298.94
2018-12-26T12:16:43.498Z,101306.50
2018-12-26T12:19:13.155Z,101296.68
2018-12-26T12:21:43.111Z,101290.47
2018-12-26T12:24:12.733Z,101293.59
2018-12-26T12:26:42.348Z,101294.34
2018-12-26T12:29:12.127Z,101293.38
2018-12-26T12:31:42.048Z,101289.98
2018-12-26T12:34:11.707Z,101293.65
2018-12-26T12:37:20.666Z,101291.45
2018-12-26T12:39:50.289Z,101291.63
2018-12-26T12:42:59.250Z,101295.93
2018-12-26T12:45:28.882Z,101308.34
2018-12-26T12:47:58.506Z,101309.79
2018-12-26T12:50:28.880Z,101175.55
2018-12-26T12:52:58.518Z,101316.66
2018-12-26T12:55:28.147Z,101320.00
2018-12-26T12:57:58.003Z,101323.48
2018-12-26T13:00:27.654Z,101334.78
2018-12-26T13:03:00.494Z,101352.14
2018-12-26T13:08:04.417Z,101353.41
2018-12-26T13:10:34.090Z,101354.80
2018-12-26T13:13:03.721Z,101349.90
2018-12-26T13:15:33.544Z,101366.72
2018-12-26T13:18:03.227Z,101373.25
2018-12-26T13:20:32.849Z,101379.77
2018-12-26T13:23:21.485Z,101384.89
2018-12-26T13:25:51.114Z,101384.02
2018-12-26T13:28:20.748Z,101383.55
2018-12-26T13:30:50.562Z,101375.38
2018-12-26T13:33:20.191Z,101383.68
2018-12-26T13:35:49.839Z,101374.92
2018-12-26T13:38:19.765Z,101381.82
2018-12-26T13:40:49.393Z,101386.13
2018-12-26T13:43:19.002Z,101387.84
2018-12-26T13:45:49.307Z,101380.46
2018-12-26T13:48:37.751Z,101256.01
2018-12-26T13:51:07.503Z,101387.25
2018-12-26T13:53:37.123Z,101379.48
2018-12-26T13:56:06.739Z,101391.65
2018-12-26T13:58:36.635Z,101390.95
2018-12-26T14:01:06.253Z,101389.75
2018-12-26T14:03:56.250Z,101382.87
2018-12-26T14:06:25.903Z,101379.09
2018-12-26T14:08:55.635Z,101384.86
2018-12-26T14:11:25.381Z,101385.56
2018-12-26T14:13:55.014Z,101378.09
2018-12-26T14:16:24.674Z,101387.45
2018-12-26T14:18:54.463Z,101380.88
2018-12-26T14:21:24.092Z,101384.56
2018-12-26T14:23:53.762Z,101376.28
2018-12-26T14:26:23.538Z,101380.47
2018-12-26T14:28:53.188Z,101384.05
2018-12-26T14:31:22.797Z,101380.36
2018-12-26T14:33:52.625Z,101391.02
2018-12-26T14:39:11.067Z,101378.75
2018-12-26T14:41:40.691Z,101379.73
2018-12-26T14:44:10.309Z,101380.82
2018-12-26T14:46:58.876Z,101375.33
2018-12-26T14:49:28.502Z,101374.23
2018-12-26T14:51:58.118Z,101379.30
2018-12-26T14:57:24.175Z,101381.48
2018-12-26T14:59:53.817Z,101374.91
2018-12-26T15:02:23.422Z,101366.03
2018-12-26T15:04:53.371Z,101371.20
2018-12-26T15:07:22.989Z,101367.33
2018-12-26T15:09:52.695Z,101361.44
2018-12-26T15:12:22.493Z,101367.41
2018-12-26T15:14:52.112Z,101361.77
2018-12-26T15:17:21.864Z,101360.64
2018-12-26T15:19:51.662Z,101359.64
2018-12-26T15:22:21.282Z,101355.86
2018-12-26T15:24:50.920Z,101358.05
2018-12-26T15:27:20.899Z,101358.95
2018-12-26T15:29:50.545Z,101358.16
2018-12-26T15:32:20.181Z,101354.38
2018-12-26T15:34:49.933Z,101351.59
2018-12-26T15:37:19.650Z,101350.51
2018-12-26T15:39:49.281Z,101341.84
2018-12-26T15:42:58.316Z,101340.16
2018-12-26T15:45:27.947Z,101339.66
2018-12-26T15:47:57.583Z,101337.66
2018-12-26T15:50:27.702Z,101332.28
2018-12-26T15:52:57.361Z,101325.31
2018-12-26T15:55:26.990Z,101323.12
2018-12-26T15:57:59.290Z,101323.52
2018-12-26T16:00:37.218Z,101326.60
2018-12-26T16:03:00.553Z,101311.97
2018-12-26T16:05:30.565Z,101305.89
2018-12-26T16:08:04.748Z,101298.13
2018-12-26T16:10:34.494Z,101309.08
2018-12-26T16:13:04.174Z,101313.26
2018-12-26T16:15:34.023Z,101319.34
2018-12-26T16:18:03.754Z,101317.14
2018-12-26T16:20:33.460Z,101306.09
2018-12-26T16:23:03.217Z,101311.37
2018-12-26T16:25:32.879Z,101316.26
2018-12-26T16:28:02.557Z,101324.23
2018-12-26T16:30:32.450Z,101316.16
2018-12-26T16:33:21.496Z,101319.46
2018-12-26T16:35:51.181Z,101314.68
2018-12-26T16:41:09.610Z,101317.08
2018-12-26T16:43:39.249Z,101314.87
2018-12-26T16:46:08.880Z,101317.97
2018-12-26T16:48:38.720Z,101326.53
2018-12-26T16:51:08.357Z,101334.30
2018-12-26T16:53:38.009Z,101331.42
2018-12-26T16:56:07.751Z,101331.92
2018-12-26T16:58:56.364Z,101333.71
2018-12-26T17:01:26.245Z,101343.98
2018-12-26T17:03:56.069Z,101335.02
2018-12-26T17:06:25.752Z,101339.60
2018-12-26T17:08:55.670Z,101344.59
2018-12-26T17:11:25.405Z,101333.93
2018-12-26T17:13:55.030Z,101329.34
2018-12-26T17:16:24.789Z,101339.52
2018-12-26T17:18:54.458Z,101341.30
2018-12-26T17:21:24.080Z,101333.23
2018-12-26T17:23:53.922Z,101327.45
2018-12-26T17:26:23.559Z,101330.55
2018-12-26T17:28:53.174Z,101327.25
2018-12-26T17:31:23.170Z,101323.46
2018-12-26T17:33:52.889Z,101315.29
2018-12-26T17:36:22.568Z,101314.98
2018-12-26T17:38:52.362Z,101319.38
2018-12-26T17:41:21.998Z,101316.78
2018-12-26T17:43:51.629Z,101317.78
2018-12-26T17:46:21.622Z,101307.52
2018-12-26T17:48:51.271Z,101309.61
2018-12-26T17:51:23.232Z,101296.64
2018-12-26T17:54:30.713Z,101288.07
2018-12-26T17:57:21.231Z,101286.58
2018-12-26T18:00:13.799Z,101282.20
2018-12-26T18:02:46.515Z,101283.00
2018-12-26T18:05:16.123Z,101284.99
2018-12-26T18:07:45.899Z,101283.50
2018-12-26T18:10:15.755Z,101273.44
2018-12-26T18:12:45.475Z,101288.58
2018-12-26T18:17:50.863Z,101285.30
2018-12-26T18:20:20.581Z,101294.36
2018-12-26T18:23:09.374Z,101290.78
2018-12-26T18:25:39.014Z,101292.17
2018-12-26T18:28:08.622Z,101293.47
2018-12-26T18:30:38.328Z,101288.59
2018-12-26T18:33:08.069Z,101294.66
2018-12-26T18:35:37.700Z,101301.64
2018-12-26T18:38:07.628Z,101299.05
2018-12-26T18:40:37.406Z,101300.94
2018-12-26T18:46:01.342Z,101301.04
2018-12-26T18:48:52.329Z,101296.36
2018-12-26T18:51:22.127Z,101290.67
2018-12-26T18:53:51.764Z,101285.89
2018-12-26T18:56:21.511Z,101289.78
2018-12-26T18:58:51.299Z,101282.00
2018-12-26T19:01:21.031Z,101278.12
2018-12-26T19:03:50.660Z,101279.02
2018-12-26T19:06:20.400Z,101278.12
2018-12-26T19:08:50.061Z,101278.82
2018-12-26T19:11:19.709Z,101280.11
2018-12-26T19:13:49.749Z,101284.40
2018-12-26T19:16:19.366Z,101272.23
2018-12-26T19:18:49.002Z,101275.13
2018-12-26T19:21:18.850Z,101280.72
2018-12-26T19:23:49.072Z,101274.23
2018-12-26T19:26:18.666Z,101272.55
2018-12-26T19:29:27.683Z,101263.47
2018-12-26T19:31:57.318Z,101253.20
2018-12-26T19:34:29.426Z,101253.30
2018-12-26T19:36:59.136Z,101249.02
2018-12-26T19:39:28.767Z,101246.42
2018-12-26T19:41:58.533Z,101229.98
2018-12-26T19:44:28.220Z,101225.40
2018-12-26T19:46:57.847Z,101218.02
2018-12-26T19:49:27.571Z,101224.69
2018-12-26T19:51:57.401Z,101218.12
2018-12-26T19:57:15.957Z,101206.06
2018-12-26T19:59:45.596Z,101200.48
2018-12-26T20:02:15.226Z,101200.27
2018-12-26T20:04:45.167Z,101195.09
2018-12-26T20:07:14.787Z,101185.22
2018-12-26T20:09:44.422Z,101185.81
2018-12-26T20:12:14.298Z,101181.42
2018-12-26T20:14:44.025Z,101187.91
2018-12-26T20:17:13.642Z,101187.11
2018-12-26T20:19:43.639Z,101184.52
2018-12-26T20:22:13.271Z,101178.93
2018-12-26T20:24:42.988Z,101177.23
2018-12-26T20:27:12.717Z,101174.45
2018-12-26T20:29:42.680Z,101176.15
2018-12-26T20:32:12.345Z,101169.57
2018-12-26T20:34:42.206Z,101165.99
2018-12-26T20:37:11.872Z,101156.23
2018-12-26T20:39:41.503Z,101165.91
2018-12-26T20:42:11.948Z,101156.75
2018-12-26T20:44:41.590Z,101156.45
2018-12-26T20:47:11.227Z,101154.95
2018-12-26T20:49:40.998Z,101143.80
2018-12-26T20:52:10.648Z,101139.50
2018-12-26T20:54:40.376Z,101141.20
2018-12-26T20:57:10.149Z,101130.84
2018-12-26T20:59:39.883Z,101122.27
2018-12-26T21:02:09.580Z,101126.74
2018-12-26T21:04:39.529Z,101120.45
2018-12-26T21:07:09.260Z,101128.33
2018-12-26T21:09:38.910Z,101125.14
2018-12-26T21:12:08.749Z,101123.25
2018-12-26T21:14:38.393Z,101113.50
2018-12-26T21:17:08.150Z,101105.64
2018-12-26T21:19:38.293Z,101099.47
2018-12-26T21:22:07.925Z,101099.47
2018-12-26T21:24:37.548Z,101096.97
2018-12-26T21:27:07.522Z,101099.47
2018-12-26T21:29:37.196Z,101102.27
2018-12-26T21:32:46.972Z,101108.65
2018-12-26T21:35:16.809Z,101110.74
2018-12-26T21:37:47.037Z,101104.48
2018-12-26T21:40:16.988Z,101102.28
2018-12-26T21:42:46.670Z,101101.98
2018-12-26T21:45:16.322Z,101104.48
2018-12-26T21:47:46.063Z,101107.87
2018-12-26T21:50:15.710Z,101111.75
2018-12-26T21:52:45.329Z,101101.30
2018-12-26T21:55:15.177Z,101099.91
2018-12-26T21:57:45.131Z,101088.95
2018-12-26T22:00:14.803Z,101077.00
2018-12-26T22:02:44.723Z,101081.37
2018-12-26T22:05:14.682Z,101087.55
2018-12-26T22:08:03.472Z,101074.59
2018-12-26T22:13:22.705Z,101062.62
2018-12-26T22:15:52.371Z,101066.61
2018-12-26T22:21:12.728Z,101063.53
2018-12-26T22:23:42.397Z,101063.53
2018-12-26T22:26:12.027Z,101067.02
2018-12-26T22:28:41.807Z,101065.72
2018-12-26T22:31:11.437Z,101065.22
2018-12-26T22:34:00.041Z,101065.91
2018-12-26T22:36:29.700Z,101065.50
2018-12-26T22:39:18.331Z,101068.80
2018-12-26T22:41:47.963Z,101070.50
2018-12-26T22:44:17.622Z,101066.52
2018-12-26T22:47:06.240Z,101067.22
2018-12-26T22:49:36.296Z,101067.13
2018-12-26T22:52:05.975Z,101061.76
2018-12-26T22:54:57.070Z,101056.48
2018-12-26T22:57:26.686Z,101055.59
2018-12-26T22:59:59.663Z,101054.30
2018-12-26T23:02:29.528Z,101049.11
2018-12-26T23:04:59.192Z,101048.62
2018-12-26T23:07:29.205Z,101044.23
2018-12-26T23:12:50.791Z,101039.95
2018-12-26T23:15:20.455Z,101045.23
2018-12-26T23:17:50.077Z,101034.88
2018-12-26T23:20:19.869Z,101026.70
2018-12-26T23:22:49.582Z,101022.02
2018-12-26T23:25:19.222Z,101034.47
2018-12-26T23:27:48.935Z,101029.20
2018-12-26T23:30:18.599Z,101027.81
2018-12-26T23:32:48.231Z,101026.02
2018-12-26T23:35:17.954Z,101025.52
2018-12-26T23:37:47.614Z,101031.81
2018-12-26T23:40:17.299Z,101036.89
2018-12-26T23:43:06.124Z,101024.84
2018-12-26T23:45:35.765Z,101033.59
2018-12-26T23:48:05.401Z,101033.11
2018-12-26T23:50:35.303Z,101031.41
2018-12-26T23:53:04.937Z,101020.86
2018-12-26T23:55:36.841Z,101022.95
2018-12-26T23:58:06.520Z,101023.75
